x

Nantucket 54nm Southeast Of Nantucket (44008) Wave Buoy

11:50pm - Thu 28th Jul 2016 All times are EDT. -4 hours from GMT.

  • Sig Wave height 1.6ft
  • Swell Direction
  • Peak Period 7s
  • Average Period 5s
  • Wind
    7mph, 9mph gusts
  • Sea Temp 71°f
  • Air Temp 73°f
  • Sea Pressure 1012.4mb
  • Nantucket 54nm Southeast Of Nantucket
  • Nantucket 54nm Southeast Of Nantucket

More Historic Weather Station data

Upgrade to MSW Pro to gain access to the past 30 days of data for over 8000 Wavebouys and Weather Stations around the globe.

Join Pro

Comparision Forecast

View Surf forecast
   
Thu 07/28 11:50pm 1.6ft 7s 5s 7 9 mph 1012.4mb 71f 73f
10:50pm 1.6ft 7s 5s 7
mph
1012.8mb 72f 73f
9:50pm 1.6ft 7s 4s 9 11 mph 1012.9mb 72f 73f
8:50pm 1.6ft 7s 4s 11 13 mph 1012.6mb 72f 74f
7:50pm 1.6ft 6s 4s 11 13 mph 1012.9mb 72f 74f
6:50pm 1.6ft 7s 4s 13 16 mph 1012.7mb 73f 74f
5:50pm 1.6ft 7s 5s 13
mph
1012.4mb 73f 75f
4:50pm 1.6ft 6s 5s 9 11 mph 1012.6mb 73f 74f
3:50pm 1.6ft 6s 5s 9
mph
1012.7mb 73f 74f
2:50pm 1.6ft 6s 5s 7 9 mph 1013.3mb 73f 74f
1:50pm 1.6ft 6s 5s 9
mph
1013.5mb 72f 73f
12:50pm 1.6ft 6s 6s 7 9 mph 1014.2mb 72f 73f
11:50am 1.6ft 6s 5s 7
mph
1014.3mb 72f 73f
10:50am 1.3ft 6s 6s 7
mph
1014.2mb 71f 73f
9:50am 1.3ft 6s 6s 7 9 mph 1014.3mb 70f 72f
8:50am 1.3ft 7s 6s 9
mph
1014.6mb 71f 72f
7:50am 1.3ft 7s 5s 7 9 mph 1014.2mb 70f 72f
6:50am 1.3ft 7s 5s 7 9 mph 1013.8mb 70f 72f
5:50am 1.3ft 6s 5s 7 9 mph 1013.6mb 70f 71f
4:50am 1.3ft 6s 5s 7 9 mph 1013.2mb 70f 71f
3:50am 1.6ft 5s 5s 4
mph
1013.5mb 70f 70f
2:50am 1.6ft 5s 5s 4
mph
1013.5mb 69f 70f
1:50am 1.6ft 7s 5s 4 7 mph 1013.6mb 70f 70f
12:50am 1.6ft 7s 5s 4 7 mph 1013.6mb 70f 70f
Wed 07/27 11:50pm 1.6ft 6s 5s 4
mph
1013.7mb 71f 71f
10:50pm 1.6ft 7s 5s 2 4 mph 1013.6mb 71f 71f
9:50pm 1.6ft 6s 5s  -  mph 1013.7mb 71f 70f
8:50pm 1.6ft 6s 5s 2 4 mph 1013.2mb 71f 70f
7:50pm 2ft 7s 5s 4
mph
1013.2mb 72f 70f
6:50pm 2ft 6s 5s 4
mph
1013mb 72f 72f
5:50pm 2ft 7s 5s 4
mph
1013.1mb 72f 71f
4:50pm 2ft 7s 5s 4 7 mph 1013.4mb 71f 70f
3:50pm 2ft 6s 5s 9 11 mph 1013.5mb 72f 69f
2:50pm 2ft 6s 5s 4 7 mph 1013.2mb 73f 69f
1:50pm 2.5ft 6s 5s 2
mph
1013.2mb 71f 70f
12:50pm 2.5ft 6s 5s 2 4 mph 1013.5mb 69f 69f
11:50am 2.5ft 5s 5s 4 7 mph 1013.5mb 70f 68f
10:50am 3ft 7s 5s 4 7 mph 1013.4mb 69f 68f
9:50am 2.5ft 7s 5s 7 9 mph 1013mb 69f 68f
8:50am 2.5ft 7s 5s 9 11 mph 1012.5mb 69f 68f
7:50am 3ft 7s 5s 7 9 mph 1012.2mb 69f 69f
6:50am 3ft 7s 5s 11 13 mph 1011.9mb 69f 72f
5:50am 3.5ft 7s 5s 13 16 mph 1011.8mb 69f 72f
4:50am 3.5ft 7s 5s 13 16 mph 1011.1mb 70f 71f
3:50am 3.5ft 7s 5s 9 11 mph 1011mb 70f 69f
2:50am 3ft 7s 5s 9 11 mph 1010.6mb 69f 68f
1:50am 3ft 7s 6s 7
mph
1010.8mb 69f 69f
12:50am 3.5ft 7s 6s 7 9 mph 1011mb 68f 68f
Tue 07/26 11:50pm 3.5ft 7s 6s 9
mph
1011.3mb 66f 69f
10:50pm 3.5ft 7s 6s 9
mph
1011.1mb 67f 69f
9:50pm 3.5ft 7s 6s 7 9 mph 1011.3mb 68f 69f
8:50pm 3.5ft 6s 5s 7 9 mph 1010.6mb 69f 69f
7:50pm 3.5ft 7s 5s 9
mph
1010.3mb 67f 68f
6:50pm 3.5ft 7s 5s 11
mph
1010mb 67f 70f
5:50pm 3.5ft 7s 5s 11 13 mph 1009.9mb 68f 70f
4:50pm 3.5ft 6s 5s 11 13 mph 1009.8mb 70f 70f
3:50pm 3.5ft 6s 5s 11 13 mph 1009.8mb 70f 70f
2:50pm 3.5ft 6s 5s 13
mph
1009.8mb 70f 70f
1:50pm 3.5ft 6s 5s 11 13 mph 1009.9mb 69f 69f
12:50pm 3.5ft 6s 5s 9 11 mph 1010.2mb 68f 68f
11:50am 2.5ft 6s 5s 11
mph
1010.4mb 66f 68f
10:50am 2.5ft 6s 5s 9 11 mph 1010.5mb 65f 66f
9:50am 2ft 5s 5s 9 11 mph 1010.4mb 65f 66f
8:50am 2ft 5s 5s 9 11 mph 1010.5mb 64f 66f
7:50am 2ft 5s 5s 11 13 mph 1010.6mb 64f 67f
6:50am 2ft 5s 5s 11 13 mph 1010.4mb 64f 68f
5:50am 2ft 5s 5s 9
mph
1010.4mb 65f 68f
4:50am 2ft 5s 5s 11 13 mph 1010.5mb 67f 68f
3:50am 2ft 7s 5s 11 13 mph 1010mb 67f 69f
2:50am 2ft 4s 4s 9 11 mph 1009.4mb 69f 71f
1:50am 2ft 4s 4s 11
mph
1009.1mb 69f 72f
12:50am 2.5ft 4s 4s 11
mph
1009.3mb 68f 71f
Mon 07/25 11:50pm 2.5ft 4s 4s 11
mph
1010.6mb 68f 71f
10:50pm 2ft 5s 4s 11 13 mph 1011.2mb 67f 70f
9:50pm 2ft 5s 4s 13
mph
1011.9mb 66f 71f
8:50pm 2ft 7s 4s 11 13 mph 1011.9mb 65f 71f
7:50pm 2ft 7s 4s 11 13 mph 1011.9mb 65f 71f
6:50pm 2ft 7s 4s 11 13 mph 1012.2mb 66f 71f
5:50pm 1.6ft 7s 5s 11 13 mph 1012.2mb 67f 72f
4:50pm 1.6ft 7s 4s 11
mph
1013mb 68f 72f
3:50pm 2ft 5s 5s 9 11 mph 1013.6mb 69f 72f
2:50pm 2ft 5s 5s 9 11 mph 1014mb 69f 72f
1:50pm 2ft 6s 5s 9 11 mph 1014.6mb 69f 72f
12:50pm 2.5ft 7s 5s 11
mph
1015mb 69f 71f
11:50am 2ft 6s 5s 9 11 mph 1015mb 68f 71f
10:50am 2ft 7s 5s 9 11 mph 1015.3mb 66f 70f
9:50am 2ft 7s 5s 9
mph
1015.4mb 64f 69f
8:50am 2ft 8s 5s 7 9 mph 1015.9mb 64f 68f
7:50am 2ft 8s 5s 11
mph
1015.6mb 64f 69f
6:50am 2ft 6s 6s 9 11 mph 1015.5mb 65f 69f
5:50am 2ft 7s 5s 9 11 mph 1015.4mb 66f 69f
4:50am 2.5ft 7s 5s 7 9 mph 1015.6mb 67f 68f